Aérodrome :
LOGIN :

S'inscrire | Disclaimer

   EN    FR    IT 

 










Légende :    VFR   VFR Marginal   IFR   IFR Intensif   IFR Très Intensif
Visi : 
Plafond : 
>= 8 km
>= 3000ft
5 à 8 km
1000 à 3000 ft
1500m à 5 km
500 à 1000 ft
800 à 1500m
200 à 500 ft
< 800m
< 200 ft
Symboles :   Orages  Brouillard  Fortes neiges  Fortes précipitations  Vent > 20 kt
SIGMETs :   Divers  Orages  Givrage  Turbulence  Onde Orograph.  Cendres Volcan.







- Altitude de l'aérodrome : 791 ft
- Code IATA : KRK


EPKK - Krakow-Balice

DERNIER METAR :
  • 232100Z 22008KT 4000 -RA BR FEW004 BKN006 11/11 Q1015

METARs EXPIRÉS :
  • 232030Z 22007KT 4000 -RA BR SCT004 BKN006 11/11 Q1015
  • 232000Z 21006KT 3500 -RA BR SCT004 BKN006 11/11 Q1015 RERA
  • 231930Z 23007KT 6000 -RA FEW006 BKN007 11/11 Q1015
  • 231900Z 23006KT 6000 -RA FEW006 BKN007 11/11 Q1015
  • 231830Z 23008KT 8000 -RA BKN007 11/11 Q1014

TAF TAF EPKK
Valide du 23 à 21h jusqu'au 24 à 21h UTC


232030Z 2321/2421 23007KT 7000 BKN010
TEMPO 2321/2409 2000 SHRA BR BKN004 BKN009CB
BECMG 2409/2412 BKN020
Pas de NOTAMs connus pour ce terrain.



MET'MAP, la Météo Aéronautique d'un coup d'oeil ! - Copyright ORBIFLY Décembre 2007 - Disclaimer

ORBIFLY MET'MAP TEAM :

Programmation & Développement : Alexandra Zaïnal
Conception & Développement : Baudouin d'Aumeries
Co-Programmation & Développement : Marc-Olivier Méhu
Soutien technique & logistique : Manuel Goepfert

Contact : metmap@orbifly.com




SOURCES & CREDITS :

   NOAA